sensor_id;sensor_type;location;lat;lon;timestamp;temperature;humidity
28438;DHT22;15667;52.376;9.708;2023-10-13T03:30:27;15.50;99.90
28438;DHT22;15667;52.376;9.708;2023-10-13T03:33:23;15.10;99.90
28438;DHT22;15667;52.376;9.708;2023-10-13T03:35:51;15.50;99.90
28438;DHT22;15667;52.376;9.708;2023-10-13T03:38:36;15.70;99.90
28438;DHT22;15667;52.376;9.708;2023-10-13T03:41:07;15.60;99.90
28438;DHT22;15667;52.376;9.708;2023-10-13T03:43:49;17.00;99.90
28438;DHT22;15667;52.376;9.708;2023-10-13T03:46:32;14.70;99.90
28438;DHT22;15667;52.376;9.708;2023-10-13T03:48:58;15.60;99.90
28438;DHT22;15667;52.376;9.708;2023-10-13T03:51:27;15.60;99.90
28438;DHT22;15667;52.376;9.708;2023-10-13T03:53:59;15.70;99.90
28438;DHT22;15667;52.376;9.708;2023-10-13T03:56:32;14.20;99.90
28438;DHT22;15667;52.376;9.708;2023-10-13T03:59:04;15.60;99.90
28438;DHT22;15667;52.376;9.708;2023-10-13T04:01:38;15.70;99.90
28438;DHT22;15667;52.376;9.708;2023-10-13T04:04:23;15.50;99.90
28438;DHT22;15667;52.376;9.708;2023-10-13T04:07:08;15.60;99.90
28438;DHT22;15667;52.376;9.708;2023-10-13T04:09:35;16.10;99.90
28438;DHT22;15667;52.376;9.708;2023-10-13T04:12:13;15.60;99.90
28438;DHT22;15667;52.376;9.708;2023-10-13T04:14:58;14.80;99.90
28438;DHT22;15667;52.376;9.708;2023-10-13T04:17:26;15.70;99.90
28438;DHT22;15667;52.376;9.708;2023-10-13T04:20:05;15.90;99.90
28438;DHT22;15667;52.376;9.708;2023-10-13T04:22:35;15.30;99.90
28438;DHT22;15667;52.376;9.708;2023-10-13T04:25:27;15.50;99.90
28438;DHT22;15667;52.376;9.708;2023-10-13T04:28:12;15.70;99.90
28438;DHT22;15667;52.376;9.708;2023-10-13T04:30:39;14.80;99.90
28438;DHT22;15667;52.376;9.708;2023-10-13T04:33:23;15.70;99.90
28438;DHT22;15667;52.376;9.708;2023-10-13T04:36:12;15.70;99.90
28438;DHT22;15667;52.376;9.708;2023-10-13T04:38:55;15.70;99.90
28438;DHT22;15667;52.376;9.708;2023-10-13T04:41:39;15.70;99.90
28438;DHT22;15667;52.376;9.708;2023-10-13T04:44:17;16.60;99.90
28438;DHT22;15667;52.376;9.708;2023-10-13T04:46:56;16.20;99.90
28438;DHT22;15667;52.376;9.708;2023-10-13T04:49:26;15.60;99.90
28438;DHT22;15667;52.376;9.708;2023-10-13T04:51:57;16.90;99.90
28438;DHT22;15667;52.376;9.708;2023-10-13T05:58:24;15.80;99.90
28438;DHT22;15667;52.376;9.708;2023-10-13T06:01:32;15.80;99.90
28438;DHT22;15667;52.376;9.708;2023-10-13T06:04:19;15.90;99.90
28438;DHT22;15667;52.376;9.708;2023-10-13T06:07:55;15.00;99.90
28438;DHT22;15667;52.376;9.708;2023-10-13T06:11:23;15.60;99.90
28438;DHT22;15667;52.376;9.708;2023-10-13T06:14:07;15.80;99.90
28438;DHT22;15667;52.376;9.708;2023-10-13T06:16:54;16.50;99.90
28438;DHT22;15667;52.376;9.708;2023-10-13T06:19:40;15.70;99.90
28438;DHT22;15667;52.376;9.708;2023-10-13T06:22:24;15.90;99.90
28438;DHT22;15667;52.376;9.708;2023-10-13T06:25:08;15.90;99.90
28438;DHT22;15667;52.376;9.708;2023-10-13T06:27:53;16.00;99.90
28438;DHT22;15667;52.376;9.708;2023-10-13T06:30:37;16.30;99.90
28438;DHT22;15667;52.376;9.708;2023-10-13T06:33:09;15.90;99.90
28438;DHT22;15667;52.376;9.708;2023-10-13T06:35:53;15.90;99.90
28438;DHT22;15667;52.376;9.708;2023-10-13T06:38:26;15.90;99.90
28438;DHT22;15667;52.376;9.708;2023-10-13T06:40:57;15.80;99.90
28438;DHT22;15667;52.376;9.708;2023-10-13T06:43:23;15.90;99.90
28438;DHT22;15667;52.376;9.708;2023-10-13T06:45:49;16.50;99.90
28438;DHT22;15667;52.376;9.708;2023-10-13T06:48:54;16.50;99.90
28438;DHT22;15667;52.376;9.708;2023-10-13T06:51:31;15.90;99.90
28438;DHT22;15667;52.376;9.708;2023-10-13T06:54:12;15.00;99.90
28438;DHT22;15667;52.376;9.708;2023-10-13T07:00:19;15.30;99.90
28438;DHT22;15667;52.376;9.708;2023-10-13T07:03:19;15.90;99.90
28438;DHT22;15667;52.376;9.708;2023-10-13T07:05:51;15.90;99.90
28438;DHT22;15667;52.376;9.708;2023-10-13T07:08:18;16.10;99.90
28438;DHT22;15667;52.376;9.708;2023-10-13T07:10:54;16.80;99.90
28438;DHT22;15667;52.376;9.708;2023-10-13T07:13:33;16.60;99.90
28438;DHT22;15667;52.376;9.708;2023-10-13T07:16:02;15.90;99.90
28438;DHT22;15667;52.376;9.708;2023-10-13T07:18:38;15.90;99.90
28438;DHT22;15667;52.376;9.708;2023-10-13T07:21:15;16.70;99.90
28438;DHT22;15667;52.376;9.708;2023-10-13T07:23:41;15.90;99.90
28438;DHT22;15667;52.376;9.708;2023-10-13T07:26:15;16.00;99.90
28438;DHT22;15667;52.376;9.708;2023-10-13T07:28:41;15.90;99.90
28438;DHT22;15667;52.376;9.708;2023-10-13T07:31:13;16.40;99.90
28438;DHT22;15667;52.376;9.708;2023-10-13T07:33:45;15.90;99.90
28438;DHT22;15667;52.376;9.708;2023-10-13T07:36:13;16.00;99.90
28438;DHT22;15667;52.376;9.708;2023-10-13T07:38:45;16.00;99.90
28438;DHT22;15667;52.376;9.708;2023-10-13T07:41:17;16.60;99.90
28438;DHT22;15667;52.376;9.708;2023-10-13T07:47:32;15.50;99.90
28438;DHT22;15667;52.376;9.708;2023-10-13T07:50:35;16.00;99.90
28438;DHT22;15667;52.376;9.708;2023-10-13T07:53:01;16.60;99.90
28438;DHT22;15667;52.376;9.708;2023-10-13T07:56:19;16.00;99.90
28438;DHT22;15667;52.376;9.708;2023-10-13T08:37:13;16.90;99.90
28438;DHT22;15667;52.376;9.708;2023-10-13T08:39:54;17.00;99.90
28438;DHT22;15667;52.376;9.708;2023-10-13T08:42:39;17.00;99.90
28438;DHT22;15667;52.376;9.708;2023-10-13T08:45:16;17.00;99.90
28438;DHT22;15667;52.376;9.708;2023-10-13T08:47:51;16.30;99.90
28438;DHT22;15667;52.376;9.708;2023-10-13T08:50:34;17.20;99.90
28438;DHT22;15667;52.376;9.708;2023-10-13T08:53:25;17.10;99.90
28438;DHT22;15667;52.376;9.708;2023-10-13T08:56:10;17.20;99.90
28438;DHT22;15667;52.376;9.708;2023-10-13T08:58:41;17.80;99.90
28438;DHT22;15667;52.376;9.708;2023-10-13T09:01:25;17.20;99.90
28438;DHT22;15667;52.376;9.708;2023-10-13T09:04:14;17.10;99.90
28438;DHT22;15667;52.376;9.708;2023-10-13T09:07:07;17.30;99.90
28438;DHT22;15667;52.376;9.708;2023-10-13T09:09:49;17.30;99.90
28438;DHT22;15667;52.376;9.708;2023-10-13T09:12:22;18.00;99.90
28438;DHT22;15667;52.376;9.708;2023-10-13T09:14:58;17.20;99.90
28438;DHT22;15667;52.376;9.708;2023-10-13T10:07:09;18.70;99.90
28438;DHT22;15667;52.376;9.708;2023-10-13T10:09:38;18.80;99.90
28438;DHT22;15667;52.376;9.708;2023-10-13T10:12:16;18.70;99.90
28438;DHT22;15667;52.376;9.708;2023-10-13T10:18:26;18.80;99.90
28438;DHT22;15667;52.376;9.708;2023-10-13T10:23:40;18.90;99.90
28438;DHT22;15667;52.376;9.708;2023-10-13T10:26:13;18.60;99.90
28438;DHT22;15667;52.376;9.708;2023-10-13T10:28:42;18.90;99.90
28438;DHT22;15667;52.376;9.708;2023-10-13T10:31:12;19.00;99.90
28438;DHT22;15667;52.376;9.708;2023-10-13T10:33:48;19.50;99.90
28438;DHT22;15667;52.376;9.708;2023-10-13T10:36:30;19.20;99.90
28438;DHT22;15667;52.376;9.708;2023-10-13T10:38:57;19.30;99.90
28438;DHT22;15667;52.376;9.708;2023-10-13T10:41:30;19.70;99.90
28438;DHT22;15667;52.376;9.708;2023-10-13T11:53:52;21.00;99.90
28438;DHT22;15667;52.376;9.708;2023-10-13T11:56:19;20.90;99.90
28438;DHT22;15667;52.376;9.708;2023-10-13T11:58:47;20.90;99.90
28438;DHT22;15667;52.376;9.708;2023-10-13T12:01:14;20.90;99.90
28438;DHT22;15667;52.376;9.708;2023-10-13T12:03:40;20.80;99.90
28438;DHT22;15667;52.376;9.708;2023-10-13T12:06:24;20.80;99.90
28438;DHT22;15667;52.376;9.708;2023-10-13T12:09:32;20.80;99.90
28438;DHT22;15667;52.376;9.708;2023-10-13T12:12:07;20.80;99.90
28438;DHT22;15667;52.376;9.708;2023-10-13T12:14:34;20.90;99.90
28438;DHT22;15667;52.376;9.708;2023-10-13T12:17:43;21.00;99.90
28438;DHT22;15667;52.376;9.708;2023-10-13T14:18:49;23.10;99.90
28438;DHT22;15667;52.376;9.708;2023-10-13T14:21:39;22.90;99.90
28438;DHT22;15667;52.376;9.708;2023-10-13T14:24:11;23.10;99.90
28438;DHT22;15667;52.376;9.708;2023-10-13T14:27:19;23.10;99.90
28438;DHT22;15667;52.376;9.708;2023-10-13T14:30:07;23.10;99.90
28438;DHT22;15667;52.376;9.708;2023-10-13T14:39:51;23.10;99.90
28438;DHT22;15667;52.376;9.708;2023-10-13T14:45:59;23.10;99.90
28438;DHT22;15667;52.376;9.708;2023-10-13T14:52:18;23.00;99.90
28438;DHT22;15667;52.376;9.708;2023-10-13T14:55:32;23.00;99.90
28438;DHT22;15667;52.376;9.708;2023-10-13T14:58:34;22.90;99.90
28438;DHT22;15667;52.376;9.708;2023-10-13T15:01:14;22.80;99.90
28438;DHT22;15667;52.376;9.708;2023-10-13T15:04:01;22.50;99.90
28438;DHT22;15667;52.376;9.708;2023-10-13T15:06:30;22.70;99.90
28438;DHT22;15667;52.376;9.708;2023-10-13T15:15:29;22.60;99.90
28438;DHT22;15667;52.376;9.708;2023-10-13T15:31:23;22.30;99.90
28438;DHT22;15667;52.376;9.708;2023-10-13T15:34:33;22.30;99.90
28438;DHT22;15667;52.376;9.708;2023-10-13T15:40:26;22.20;99.90
28438;DHT22;15667;52.376;9.708;2023-10-13T15:49:01;22.20;99.90
28438;DHT22;15667;52.376;9.708;2023-10-13T15:51:34;22.00;99.90
28438;DHT22;15667;52.376;9.708;2023-10-13T15:54:26;22.00;99.90
28438;DHT22;15667;52.376;9.708;2023-10-13T15:57:01;22.00;99.90
28438;DHT22;15667;52.376;9.708;2023-10-13T15:59:47;22.00;99.90
28438;DHT22;15667;52.376;9.708;2023-10-13T16:02:29;21.90;99.90
28438;DHT22;15667;52.376;9.708;2023-10-13T16:07:55;21.80;99.90
28438;DHT22;15667;52.376;9.708;2023-10-13T16:17:23;21.80;99.90
28438;DHT22;15667;52.376;9.708;2023-10-13T16:20:16;21.70;99.90
28438;DHT22;15667;52.376;9.708;2023-10-13T21:11:13;18.50;99.90
28438;DHT22;15667;52.376;9.708;2023-10-13T21:17:34;18.10;99.90
28438;DHT22;15667;52.376;9.708;2023-10-13T21:34:50;17.80;99.90
28438;DHT22;15667;52.376;9.708;2023-10-13T21:37:18;17.90;99.90
28438;DHT22;15667;52.376;9.708;2023-10-13T21:43:20;17.90;99.90
28438;DHT22;15667;52.376;9.708;2023-10-13T21:46:13;17.90;99.90
28438;DHT22;15667;52.376;9.708;2023-10-13T21:48:58;17.80;99.90
28438;DHT22;15667;52.376;9.708;2023-10-13T21:51:39;17.70;99.90
28438;DHT22;15667;52.376;9.708;2023-10-13T21:54:14;17.70;99.90
28438;DHT22;15667;52.376;9.708;2023-10-13T21:56:43;17.60;99.90
28438;DHT22;15667;52.376;9.708;2023-10-13T22:00:12;17.60;99.90
28438;DHT22;15667;52.376;9.708;2023-10-13T22:02:20;17.70;99.90
28438;DHT22;15667;52.376;9.708;2023-10-13T22:04:49;17.50;99.90
28438;DHT22;15667;52.376;9.708;2023-10-13T22:07:17;17.40;99.90
28438;DHT22;15667;52.376;9.708;2023-10-13T22:09:49;17.40;99.90
28438;DHT22;15667;52.376;9.708;2023-10-13T22:12:18;17.30;99.90
28438;DHT22;15667;52.376;9.708;2023-10-13T22:14:44;17.20;99.90
28438;DHT22;15667;52.376;9.708;2023-10-13T22:17:11;17.20;99.90
28438;DHT22;15667;52.376;9.708;2023-10-13T22:19:43;17.10;99.90
28438;DHT22;15667;52.376;9.708;2023-10-13T22:22:32;17.10;99.90
28438;DHT22;15667;52.376;9.708;2023-10-13T22:25:02;17.10;99.90
28438;DHT22;15667;52.376;9.708;2023-10-13T22:27:31;17.10;99.90
28438;DHT22;15667;52.376;9.708;2023-10-13T22:30:02;17.20;99.90
28438;DHT22;15667;52.376;9.708;2023-10-13T22:32:35;17.30;99.90
28438;DHT22;15667;52.376;9.708;2023-10-13T22:35:03;17.40;99.90
28438;DHT22;15667;52.376;9.708;2023-10-13T22:37:29;17.40;99.90
28438;DHT22;15667;52.376;9.708;2023-10-13T22:40:04;17.50;99.90
28438;DHT22;15667;52.376;9.708;2023-10-13T22:42:37;17.50;99.90
28438;DHT22;15667;52.376;9.708;2023-10-13T22:45:03;17.60;99.90
28438;DHT22;15667;52.376;9.708;2023-10-13T22:47:29;17.60;99.90
28438;DHT22;15667;52.376;9.708;2023-10-13T22:49:55;17.50;99.90
28438;DHT22;15667;52.376;9.708;2023-10-13T22:52:21;17.30;99.90
28438;DHT22;15667;52.376;9.708;2023-10-13T22:54:47;17.20;99.90
28438;DHT22;15667;52.376;9.708;2023-10-13T22:57:13;17.10;99.90
28438;DHT22;15667;52.376;9.708;2023-10-13T22:59:39;16.90;99.90
28438;DHT22;15667;52.376;9.708;2023-10-13T23:02:05;16.90;99.90
28438;DHT22;15667;52.376;9.708;2023-10-13T23:04:31;16.90;99.90
28438;DHT22;15667;52.376;9.708;2023-10-13T23:06:58;17.00;99.90
28438;DHT22;15667;52.376;9.708;2023-10-13T23:09:27;17.10;99.90
28438;DHT22;15667;52.376;9.708;2023-10-13T23:11:57;17.10;99.90
28438;DHT22;15667;52.376;9.708;2023-10-13T23:14:40;16.90;99.90
28438;DHT22;15667;52.376;9.708;2023-10-13T23:17:09;17.10;99.90
28438;DHT22;15667;52.376;9.708;2023-10-13T23:19:40;17.10;99.90
28438;DHT22;15667;52.376;9.708;2023-10-13T23:22:06;17.10;99.90
28438;DHT22;15667;52.376;9.708;2023-10-13T23:24:34;17.20;99.90
28438;DHT22;15667;52.376;9.708;2023-10-13T23:27:05;17.20;99.90
28438;DHT22;15667;52.376;9.708;2023-10-13T23:29:31;17.20;99.90
28438;DHT22;15667;52.376;9.708;2023-10-13T23:35:41;17.30;99.90
28438;DHT22;15667;52.376;9.708;2023-10-13T23:38:59;17.20;99.90
28438;DHT22;15667;52.376;9.708;2023-10-13T23:48:42;17.30;99.90
28438;DHT22;15667;52.376;9.708;2023-10-13T23:55:12;17.50;99.90
28438;DHT22;15667;52.376;9.708;2023-10-13T23:57:55;17.60;99.90
